Time;durP1;ratioP1;P1;durP2;ratioP2;P2;SDS_P1;SDS_P2;PMS_P1;PMS_P2;Temp;Humidity;BMP_temperature;BMP_pressure;BME280_temperature;BME280_humidity;BME280_pressure;Samples;Min_cycle;Max_cycle;Signal;HPM_P1;HPM_P2
2021/12/29 00:00:42;;;;;;;36.27;24.47;;;4.70;99.90;;;;;;4963975;28;20494;-66
2021/12/29 00:03:11;;;;;;;30.93;23.83;;;4.60;99.90;;;;;;4965423;28;20548;-66
2021/12/29 00:05:40;;;;;;;31.83;22.13;;;4.30;99.90;;;;;;4964802;28;21124;-66
2021/12/29 00:08:09;;;;;;;36.13;27.10;;;4.60;99.90;;;;;;4965649;28;20564;-66
2021/12/29 00:10:38;;;;;;;32.30;22.07;;;4.70;99.90;;;;;;4966417;28;21020;-66
2021/12/29 00:13:06;;;;;;;33.37;23.80;;;4.90;99.90;;;;;;4968291;28;20481;-66
2021/12/29 00:15:36;;;;;;;35.30;25.07;;;5.00;99.90;;;;;;4967902;28;20513;-66
2021/12/29 00:18:06;;;;;;;31.93;25.00;;;5.00;99.90;;;;;;4970802;28;20962;-66
2021/12/29 00:20:34;;;;;;;29.63;24.10;;;4.60;99.90;;;;;;4973736;28;20465;-66
2021/12/29 00:23:05;;;;;;;32.37;23.20;;;4.20;99.90;;;;;;4959309;28;20983;-66
2021/12/29 00:25:37;;;;;;;30.13;22.47;;;4.00;99.90;;;;;;4962292;28;20234;-66
2021/12/29 00:28:06;;;;;;;30.07;22.13;;;3.90;99.90;;;;;;4978039;28;20477;-66
2021/12/29 00:30:35;;;;;;;28.77;20.63;;;3.80;99.90;;;;;;4969832;28;20486;-66
2021/12/29 00:33:23;;;;;;;24.63;18.70;;;3.80;99.90;;;;;;4977702;28;20500;-66
2021/12/29 00:36:10;;;;;;;31.77;22.70;;;4.10;99.90;;;;;;4978115;28;20489;-66
2021/12/29 00:38:57;;;;;;;32.60;23.50;;;4.50;99.90;;;;;;4977587;28;20503;-66
2021/12/29 00:41:44;;;;;;;38.30;26.87;;;4.80;99.90;;;;;;4977748;28;20528;-66
2021/12/29 00:44:44;;;;;;;32.90;23.07;;;4.90;99.90;;;;;;4958643;28;21015;-66
2021/12/29 00:47:16;;;;;;;33.90;25.20;;;4.50;99.90;;;;;;4985669;28;20539;-66
2021/12/29 00:49:46;;;;;;;31.83;22.87;;;4.30;99.90;;;;;;4996017;28;20482;-67
2021/12/29 00:52:15;;;;;;;38.30;25.60;;;4.10;99.90;;;;;;4978011;28;20512;-66
2021/12/29 00:54:44;;;;;;;31.77;23.57;;;4.50;99.90;;;;;;4977869;28;20475;-66
2021/12/29 00:57:12;;;;;;;35.83;24.03;;;4.50;99.90;;;;;;4977962;28;20516;-66
2021/12/29 00:59:40;;;;;;;36.73;26.17;;;4.80;99.90;;;;;;4977146;28;20484;-66
2021/12/29 01:02:09;;;;;;;36.33;26.43;;;5.00;99.90;;;;;;4978052;28;20265;-67
2021/12/29 01:04:37;;;;;;;32.73;24.20;;;4.90;99.90;;;;;;4977748;28;20473;-67
2021/12/29 01:07:07;;;;;;;30.83;24.10;;;4.50;99.90;;;;;;4978079;28;20492;-67
2021/12/29 01:09:35;;;;;;;33.43;23.97;;;4.20;99.90;;;;;;4977603;28;20971;-67
2021/12/29 01:12:04;;;;;;;36.47;26.63;;;4.30;99.90;;;;;;4977939;28;20523;-66
2021/12/29 01:14:32;;;;;;;35.80;26.57;;;4.30;99.90;;;;;;4973695;28;20460;-66
2021/12/29 01:17:00;;;;;;;33.63;23.93;;;4.40;99.90;;;;;;4958600;28;20565;-66
2021/12/29 01:19:30;;;;;;;32.37;23.43;;;4.50;99.90;;;;;;4958258;28;20482;-66
2021/12/29 01:22:01;;;;;;;29.90;23.10;;;4.20;99.90;;;;;;4977684;28;20527;-67
2021/12/29 01:24:31;;;;;;;26.80;20.73;;;4.00;99.90;;;;;;4977726;28;20469;-66
2021/12/29 01:26:59;;;;;;;31.93;23.70;;;4.20;99.90;;;;;;4977768;28;20482;-66
2021/12/29 01:29:28;;;;;;;29.10;22.17;;;4.10;99.90;;;;;;4977586;28;21015;-66
2021/12/29 01:31:58;;;;;;;26.77;21.00;;;4.00;99.90;;;;;;4975552;28;20561;-66
2021/12/29 01:34:27;;;;;;;26.23;20.37;;;3.80;99.90;;;;;;4974510;28;20570;-66
2021/12/29 01:36:55;;;;;;;27.90;21.90;;;3.80;99.90;;;;;;4974566;28;20468;-66
2021/12/29 01:39:24;;;;;;;28.23;21.13;;;4.20;99.90;;;;;;4974637;28;20555;-66
2021/12/29 01:41:56;;;;;;;32.87;23.20;;;4.50;99.90;;;;;;4974430;28;20565;-66
2021/12/29 01:44:27;;;;;;;34.57;24.93;;;4.80;99.90;;;;;;4964080;28;20499;-66
2021/12/29 01:46:58;;;;;;;34.07;24.87;;;5.10;99.90;;;;;;4969000;28;20483;-66
2021/12/29 01:49:26;;;;;;;35.93;27.43;;;5.10;99.90;;;;;;4971600;28;20496;-67
2021/12/29 01:52:03;;;;;;;33.73;25.37;;;4.60;99.90;;;;;;4958238;28;20231;-66
2021/12/29 01:54:34;;;;;;;32.50;23.73;;;4.30;99.90;;;;;;4961024;28;20544;-66
2021/12/29 01:57:10;;;;;;;31.17;24.60;;;4.20;99.90;;;;;;4973714;28;20470;-66
2021/12/29 01:59:38;;;;;;;33.67;25.50;;;4.00;99.90;;;;;;4973528;28;20508;-67
2021/12/29 02:02:07;;;;;;;30.30;22.47;;;3.90;99.90;;;;;;4974377;28;20465;-67
2021/12/29 02:04:35;;;;;;;37.20;26.77;;;4.10;99.90;;;;;;4973834;28;20517;-67
2021/12/29 02:07:04;;;;;;;34.50;26.10;;;4.50;99.90;;;;;;4974074;28;20506;-66
2021/12/29 02:09:33;;;;;;;31.93;22.80;;;4.30;99.90;;;;;;4973830;28;20477;-66
2021/12/29 02:12:02;;;;;;;33.97;24.23;;;4.10;99.90;;;;;;4974087;28;20472;-66
2021/12/29 02:14:32;;;;;;;35.27;24.40;;;4.50;99.90;;;;;;4973823;28;20553;-67
2021/12/29 02:17:01;;;;;;;38.50;27.50;;;4.70;99.90;;;;;;4973977;28;20509;-66
2021/12/29 02:19:30;;;;;;;32.97;25.50;;;4.70;99.90;;;;;;4970444;28;20494;-66
2021/12/29 02:22:07;;;;;;;32.27;23.97;;;4.40;99.90;;;;;;4961646;28;20579;-66
2021/12/29 02:24:39;;;;;;;30.77;23.70;;;4.10;99.90;;;;;;4954400;28;20996;-66
2021/12/29 02:27:08;;;;;;;29.43;21.70;;;3.90;99.90;;;;;;4973929;28;20826;-67
2021/12/29 02:29:38;;;;;;;30.43;22.33;;;4.30;99.90;;;;;;4973663;28;20481;-67
2021/12/29 02:32:07;;;;;;;31.43;23.63;;;4.60;99.90;;;;;;4973780;28;21009;-66
2021/12/29 02:34:36;;;;;;;28.07;21.13;;;4.70;99.90;;;;;;4973193;28;20492;-67
2021/12/29 02:37:05;;;;;;;31.90;23.60;;;4.70;99.90;;;;;;4973648;28;20474;-66
2021/12/29 02:39:37;;;;;;;31.93;24.80;;;4.90;99.90;;;;;;4973266;28;20466;-66
2021/12/29 02:42:08;;;;;;;36.00;26.47;;;4.80;99.90;;;;;;4954311;28;20894;-67
2021/12/29 02:44:40;;;;;;;29.70;22.57;;;4.80;99.90;;;;;;4954040;28;20501;-67
2021/12/29 02:47:09;;;;;;;32.10;23.47;;;5.10;99.90;;;;;;4973546;28;20467;-67
2021/12/29 02:49:37;;;;;;;32.73;24.00;;;5.20;99.90;;;;;;4972427;28;20822;-66
2021/12/29 02:52:10;;;;;;;35.17;25.17;;;5.30;99.90;;;;;;4966041;28;20475;-67
2021/12/29 02:54:38;;;;;;;37.17;25.60;;;5.20;99.90;;;;;;4964860;28;20500;-67
2021/12/29 02:57:07;;;;;;;36.37;26.63;;;5.30;99.90;;;;;;4973154;28;20478;-66
2021/12/29 02:59:35;;;;;;;35.10;24.87;;;5.40;99.90;;;;;;4972806;28;20549;-66
2021/12/29 03:02:04;;;;;;;36.30;25.87;;;5.40;99.90;;;;;;4973139;28;20504;-67
2021/12/29 03:04:32;;;;;;;36.33;25.50;;;5.40;99.90;;;;;;4960913;28;20478;-66
2021/12/29 03:07:00;;;;;;;32.50;25.43;;;5.40;99.90;;;;;;4934414;29;20556;-67
2021/12/29 03:09:34;;;;;;;26.73;20.73;;;5.10;99.90;;;;;;4934372;29;20502;-66
2021/12/29 03:12:02;;;;;;;26.93;21.47;;;4.70;99.90;;;;;;4934605;29;20468;-66
2021/12/29 03:14:31;;;;;;;29.00;22.07;;;4.50;99.90;;;;;;4951933;28;20915;-66
2021/12/29 03:16:59;;;;;;;28.03;21.83;;;4.30;99.90;;;;;;4953667;28;20483;-66
2021/12/29 03:19:27;;;;;;;23.87;18.10;;;4.10;99.90;;;;;;4953399;28;20538;-66
2021/12/29 03:21:55;;;;;;;28.77;21.87;;;4.20;99.90;;;;;;4953302;28;20557;-66
2021/12/29 03:24:23;;;;;;;26.90;20.57;;;4.50;99.90;;;;;;4953375;28;20479;-66
2021/12/29 03:26:53;;;;;;;28.37;21.53;;;4.70;99.90;;;;;;4953376;28;20512;-66
2021/12/29 03:29:21;;;;;;;31.43;22.00;;;5.00;99.90;;;;;;4953401;28;20490;-66
2021/12/29 03:31:50;;;;;;;29.43;22.40;;;5.00;99.90;;;;;;4953129;28;20478;-66
2021/12/29 03:34:18;;;;;;;31.83;23.90;;;5.10;99.90;;;;;;4953239;28;20471;-67
2021/12/29 03:36:46;;;;;;;31.53;24.13;;;5.20;99.90;;;;;;4952970;28;20544;-66
2021/12/29 03:39:14;;;;;;;27.93;20.40;;;5.10;99.90;;;;;;4953208;28;20474;-66
2021/12/29 03:41:42;;;;;;;28.63;20.60;;;5.10;99.90;;;;;;4952991;28;20558;-66
2021/12/29 03:44:11;;;;;;;27.13;21.13;;;5.20;99.90;;;;;;4952727;28;21017;-66
2021/12/29 03:46:40;;;;;;;30.83;23.73;;;5.10;99.90;;;;;;4953360;28;20500;-66
2021/12/29 03:49:10;;;;;;;28.10;20.57;;;5.10;99.90;;;;;;4952921;28;20509;-66
2021/12/29 03:51:38;;;;;;;26.83;22.17;;;5.10;99.90;;;;;;4972112;28;21012;-66
2021/12/29 03:54:06;;;;;;;26.10;20.03;;;5.00;99.90;;;;;;4972128;28;20466;-66
2021/12/29 03:56:34;;;;;;;27.97;21.23;;;4.70;99.90;;;;;;4971363;28;20508;-66
2021/12/29 03:59:03;;;;;;;25.27;19.57;;;4.90;99.90;;;;;;4972243;28;20548;-66
2021/12/29 04:01:32;;;;;;;29.40;22.10;;;5.00;99.90;;;;;;4971867;28;20532;-66
2021/12/29 04:04:01;;;;;;;28.30;21.33;;;5.20;99.90;;;;;;4972187;28;22709;-66
2021/12/29 04:06:29;;;;;;;31.43;21.70;;;5.20;99.90;;;;;;4971784;28;20569;-66
2021/12/29 04:08:57;;;;;;;28.20;22.00;;;5.20;99.90;;;;;;4949137;28;20891;-66
2021/12/29 04:11:25;;;;;;;25.93;20.33;;;5.10;99.90;;;;;;4949734;28;20856;-66
2021/12/29 04:13:53;;;;;;;27.70;21.70;;;4.80;99.90;;;;;;4952622;28;20511;-66
2021/12/29 04:16:21;;;;;;;21.23;17.17;;;4.60;99.90;;;;;;4952501;28;20567;-66
2021/12/29 04:21:34;;;;;;;26.20;20.33;;;4.70;99.90;;;;;;4947888;28;20546;-66
2021/12/29 04:24:03;;;;;;;26.97;20.50;;;4.80;99.90;;;;;;4952704;28;20499;-67
2021/12/29 04:26:35;;;;;;;25.27;19.43;;;4.50;99.90;;;;;;4952320;28;20537;-67
2021/12/29 04:29:05;;;;;;;23.83;18.30;;;4.20;99.90;;;;;;4952556;28;20490;-67
2021/12/29 04:31:33;;;;;;;34.08;28.30;;;4.40;99.90;;;;;;4966469;28;20775;-66
2021/12/29 04:34:03;;;;;;;29.03;22.67;;;4.60;99.90;;;;;;4971660;28;20868;-66
2021/12/29 04:36:31;;;;;;;31.03;24.47;;;4.80;99.90;;;;;;4971483;28;20503;-66
2021/12/29 04:39:01;;;;;;;27.93;22.77;;;4.90;99.90;;;;;;4948595;28;20536;-66
2021/12/29 04:41:29;;;;;;;23.17;18.23;;;4.50;99.90;;;;;;4949356;28;20482;-66
2021/12/29 04:43:57;;;;;;;26.10;21.27;;;4.60;99.90;;;;;;4952508;28;20569;-67
2021/12/29 04:46:35;;;;;;;25.23;19.97;;;4.30;99.90;;;;;;4952124;28;20560;-66
2021/12/29 04:49:05;;;;;;;21.13;18.17;;;4.10;99.90;;;;;;4952366;28;20564;-66
2021/12/29 04:51:35;;;;;;;26.50;17.43;;;4.00;99.90;;;;;;4952144;28;20472;-66
2021/12/29 04:54:06;;;;;;;20.87;16.63;;;3.90;99.90;;;;;;4952177;28;21040;-66
2021/12/29 04:56:35;;;;;;;27.67;19.87;;;4.20;99.90;;;;;;4952010;28;20466;-66
2021/12/29 04:59:04;;;;;;;28.30;20.80;;;4.50;99.90;;;;;;4952460;28;20514;-66
2021/12/29 05:01:32;;;;;;;29.60;22.20;;;4.80;99.90;;;;;;4952026;28;20548;-66
2021/12/29 05:04:01;;;;;;;28.00;21.03;;;4.90;99.90;;;;;;4952210;28;20485;-66
2021/12/29 05:09:16;;;;;;;31.43;22.60;;;5.00;99.90;;;;;;4965463;28;21024;-66
2021/12/29 05:11:46;;;;;;;28.17;21.43;;;5.00;99.90;;;;;;4973025;28;20483;-66
2021/12/29 05:14:14;;;;;;;28.30;20.20;;;4.60;99.90;;;;;;4974871;28;20480;-67
2021/12/29 05:16:42;;;;;;;31.47;21.40;;;4.70;99.90;;;;;;4974686;28;20505;-66
2021/12/29 05:19:10;;;;;;;30.57;20.63;;;4.90;99.90;;;;;;4975198;28;20477;-66
2021/12/29 05:21:40;;;;;;;24.87;19.30;;;4.90;99.90;;;;;;4974812;28;21023;-67
2021/12/29 05:24:08;;;;;;;28.83;19.97;;;4.90;99.90;;;;;;4975147;28;20488;-66
2021/12/29 05:26:38;;;;;;;32.97;22.97;;;4.80;99.90;;;;;;4974766;28;20473;-66
2021/12/29 05:29:06;;;;;;;32.60;21.17;;;4.80;99.90;;;;;;4975032;28;20966;-66
2021/12/29 05:31:34;;;;;;;32.67;21.73;;;4.80;99.90;;;;;;4974499;28;20470;-66
2021/12/29 05:34:03;;;;;;;33.17;21.80;;;5.00;99.90;;;;;;4974607;28;20492;-66
2021/12/29 05:36:31;;;;;;;32.23;23.03;;;5.00;99.90;;;;;;4974428;28;20825;-66
2021/12/29 05:39:00;;;;;;;32.73;22.10;;;4.70;99.90;;;;;;4966976;28;20518;-66
2021/12/29 05:41:28;;;;;;;31.90;21.43;;;4.80;99.90;;;;;;4972984;28;20858;-66
2021/12/29 05:43:56;;;;;;;31.40;20.90;;;5.00;99.90;;;;;;4974715;28;21159;-66
2021/12/29 05:46:24;;;;;;;29.37;22.50;;;5.10;99.90;;;;;;4974337;28;20486;-66
2021/12/29 05:48:53;;;;;;;27.60;19.93;;;4.80;99.90;;;;;;4974540;28;21008;-66
2021/12/29 05:51:21;;;;;;;34.37;22.00;;;4.60;99.90;;;;;;4973357;28;20513;-66
2021/12/29 05:53:50;;;;;;;32.83;21.20;;;4.70;99.90;;;;;;4973937;28;20478;-67
2021/12/29 05:56:19;;;;;;;31.77;23.30;;;4.80;99.90;;;;;;4974018;28;20478;-66
2021/12/29 05:58:48;;;;;;;35.43;22.00;;;4.70;99.90;;;;;;4974028;28;20910;-66
2021/12/29 06:01:16;;;;;;;32.10;21.83;;;4.30;99.90;;;;;;4974239;28;20505;-66
2021/12/29 06:03:44;;;;;;;26.73;20.70;;;4.00;99.90;;;;;;4974115;28;20481;-67
2021/12/29 06:06:12;;;;;;;27.00;20.03;;;3.80;99.90;;;;;;4974065;28;21109;-67
2021/12/29 06:08:41;;;;;;;29.57;20.60;;;3.80;99.90;;;;;;4974302;28;20512;-66
2021/12/29 06:11:09;;;;;;;25.43;19.27;;;3.60;99.90;;;;;;4974071;28;20492;-66
2021/12/29 06:13:39;;;;;;;30.73;19.73;;;3.60;99.90;;;;;;4973936;28;20480;-66
2021/12/29 06:16:07;;;;;;;29.87;21.70;;;3.50;99.90;;;;;;4973961;28;20995;-66
2021/12/29 06:18:35;;;;;;;38.33;20.03;;;3.70;99.90;;;;;;4973287;28;20543;-66
2021/12/29 06:21:03;;;;;;;33.33;20.43;;;3.50;99.90;;;;;;4966131;28;20475;-66
2021/12/29 06:23:31;;;;;;;32.00;21.40;;;3.50;99.90;;;;;;4962045;28;20536;-66
2021/12/29 06:25:59;;;;;;;33.63;21.37;;;3.40;99.90;;;;;;4958393;28;20520;-66
2021/12/29 06:28:27;;;;;;;38.90;21.60;;;3.60;99.90;;;;;;4954215;28;20470;-66
2021/12/29 06:30:57;;;;;;;41.43;25.00;;;3.70;99.90;;;;;;4954440;28;20481;-66
2021/12/29 06:33:25;;;;;;;39.63;25.27;;;3.80;99.90;;;;;;4954095;28;20487;-66
2021/12/29 06:35:53;;;;;;;39.90;23.70;;;3.70;99.90;;;;;;4954109;28;20550;-66
2021/12/29 06:38:22;;;;;;;42.77;24.73;;;3.70;99.90;;;;;;4954249;28;20487;-66
2021/12/29 06:40:51;;;;;;;41.63;24.90;;;4.00;99.90;;;;;;4954198;28;20489;-66
2021/12/29 06:43:19;;;;;;;37.77;22.07;;;3.80;99.90;;;;;;4954407;28;20525;-66
2021/12/29 06:45:47;;;;;;;48.97;27.17;;;3.90;99.90;;;;;;4981242;28;20468;-66
2021/12/29 06:48:17;;;;;;;40.47;22.27;;;3.90;99.90;;;;;;4992638;28;20483;-66
2021/12/29 06:50:45;;;;;;;48.27;26.43;;;3.90;99.90;;;;;;4982982;28;20480;-66
2021/12/29 06:53:13;;;;;;;49.90;26.50;;;4.10;99.90;;;;;;4973214;28;20531;-66
2021/12/29 06:55:43;;;;;;;54.50;28.50;;;4.50;99.90;;;;;;4958816;28;20814;-66
2021/12/29 06:58:11;;;;;;;50.77;26.10;;;4.60;99.90;;;;;;4953941;28;20561;-66
2021/12/29 07:00:40;;;;;;;55.23;28.20;;;4.50;99.90;;;;;;4967408;28;20831;-66
2021/12/29 07:03:08;;;;;;;56.30;29.03;;;4.70;99.90;;;;;;4953687;28;21055;-66
2021/12/29 07:05:38;;;;;;;60.53;29.07;;;4.50;99.90;;;;;;4969856;28;20471;-66
2021/12/29 07:08:06;;;;;;;63.03;32.87;;;4.70;99.90;;;;;;4977283;28;20552;-66
2021/12/29 07:10:34;;;;;;;56.63;32.23;;;4.60;99.90;;;;;;4968737;28;20473;-66
2021/12/29 07:13:02;;;;;;;55.53;31.97;;;4.40;99.90;;;;;;4952210;28;20482;-66
2021/12/29 07:15:30;;;;;;;49.83;28.87;;;4.40;99.90;;;;;;4953047;28;20468;-66
2021/12/29 07:17:58;;;;;;;48.67;25.80;;;4.30;99.90;;;;;;4953582;28;20485;-66
2021/12/29 07:20:27;;;;;;;51.97;30.40;;;4.50;99.90;;;;;;4953108;28;20488;-67
2021/12/29 07:22:56;;;;;;;48.10;26.40;;;4.40;99.90;;;;;;4953439;28;20475;-66
2021/12/29 07:25:24;;;;;;;52.60;28.57;;;4.50;99.90;;;;;;4962435;28;20827;-66
2021/12/29 07:27:53;;;;;;;50.20;28.77;;;4.60;99.90;;;;;;4971684;28;20504;-66
2021/12/29 07:30:22;;;;;;;56.57;28.20;;;4.40;99.90;;;;;;4969375;28;20842;-66
2021/12/29 07:32:50;;;;;;;54.60;28.07;;;4.40;99.90;;;;;;4971901;28;20893;-67
2021/12/29 07:35:19;;;;;;;63.03;31.00;;;4.60;99.90;;;;;;4971569;28;20474;-66
2021/12/29 07:37:47;;;;;;;56.40;32.10;;;4.70;99.90;;;;;;4971764;28;20500;-66
2021/12/29 07:40:16;;;;;;;60.03;31.20;;;4.40;99.90;;;;;;4971725;28;20484;-66
2021/12/29 07:42:45;;;;;;;53.10;30.93;;;4.50;99.90;;;;;;4971648;28;20502;-66
2021/12/29 07:45:13;;;;;;;53.67;31.17;;;4.30;99.90;;;;;;4971682;28;20477;-66
2021/12/29 07:47:46;;;;;;;44.40;25.40;;;4.00;99.90;;;;;;4969630;28;20506;-66
2021/12/29 07:50:15;;;;;;;53.83;31.37;;;4.00;99.90;;;;;;4968348;28;20561;-66
2021/12/29 07:52:58;;;;;;;47.63;26.37;;;4.20;99.90;;;;;;4971346;28;20478;-66
2021/12/29 07:55:27;;;;;;;50.77;28.00;;;4.20;99.90;;;;;;4971129;28;20485;-66
2021/12/29 07:57:56;;;;;;;58.37;29.77;;;4.50;99.90;;;;;;4959607;28;20552;-66
2021/12/29 08:00:25;;;;;;;59.87;31.53;;;4.70;99.90;;;;;;4970052;28;20478;-66
2021/12/29 08:02:53;;;;;;;57.07;32.73;;;4.70;99.90;;;;;;4971881;28;20836;-66
2021/12/29 08:05:22;;;;;;;53.07;30.27;;;4.30;99.90;;;;;;4971858;28;20477;-66
2021/12/29 08:07:51;;;;;;;53.47;31.73;;;4.10;99.90;;;;;;4966138;28;21036;-66
2021/12/29 08:10:20;;;;;;;52.17;29.73;;;4.00;99.90;;;;;;4964336;28;20480;-66
2021/12/29 08:12:50;;;;;;;51.73;29.63;;;3.70;99.90;;;;;;4965264;28;20477;-66
2021/12/29 08:15:18;;;;;;;51.67;29.07;;;3.70;99.90;;;;;;4963517;28;20474;-66
2021/12/29 08:17:50;;;;;;;56.07;29.80;;;3.60;99.90;;;;;;4954798;28;20508;-66
2021/12/29 08:20:18;;;;;;;57.13;31.23;;;3.70;99.90;;;;;;4952344;28;20584;-66
2021/12/29 08:22:47;;;;;;;59.37;33.33;;;3.90;99.90;;;;;;4952353;28;20486;-66
2021/12/29 08:25:15;;;;;;;54.33;30.10;;;3.80;99.90;;;;;;4960383;28;20491;-66
2021/12/29 08:27:43;;;;;;;58.43;32.00;;;3.80;99.90;;;;;;4963481;28;20572;-66
2021/12/29 08:30:13;;;;;;;56.83;31.27;;;3.80;99.90;;;;;;4951878;28;20467;-66
2021/12/29 08:32:41;;;;;;;54.90;30.70;;;3.70;99.90;;;;;;4968250;28;20481;-66
2021/12/29 08:35:10;;;;;;;61.13;31.67;;;3.70;99.90;;;;;;4963895;28;20476;-66
2021/12/29 08:37:39;;;;;;;63.70;31.87;;;3.80;99.90;;;;;;4971221;28;20503;-66
2021/12/29 08:40:10;;;;;;;61.37;33.33;;;4.00;99.90;;;;;;4982543;28;20484;-66
2021/12/29 08:42:40;;;;;;;60.33;33.00;;;4.00;99.90;;;;;;4969078;28;20473;-66
2021/12/29 08:45:11;;;;;;;61.63;32.90;;;3.70;99.90;;;;;;4974504;28;20472;-66
2021/12/29 08:47:42;;;;;;;65.83;34.50;;;3.60;99.90;;;;;;4966534;28;20490;-66
2021/12/29 08:50:12;;;;;;;65.90;33.37;;;3.50;99.90;;;;;;4968360;28;20488;-66
2021/12/29 08:52:41;;;;;;;65.00;33.80;;;3.40;99.90;;;;;;4976826;28;20514;-66
2021/12/29 08:55:11;;;;;;;65.70;31.17;;;3.40;99.90;;;;;;4975931;28;20973;-66
2021/12/29 08:57:39;;;;;;;61.47;30.93;;;3.40;99.90;;;;;;4932949;29;20473;-66
2021/12/29 09:00:10;;;;;;;64.40;32.43;;;3.50;99.90;;;;;;4929228;28;20510;-66
2021/12/29 09:02:38;;;;;;;59.37;31.47;;;3.40;99.90;;;;;;4928976;28;20505;-66
2021/12/29 09:05:10;;;;;;;59.67;31.10;;;3.50;99.90;;;;;;4929708;28;20540;-66
2021/12/29 09:07:39;;;;;;;68.17;34.07;;;3.50;99.90;;;;;;4929735;28;20525;-66
2021/12/29 09:10:09;;;;;;;66.07;35.17;;;3.50;99.90;;;;;;4929882;28;20475;-66
2021/12/29 09:12:37;;;;;;;63.67;32.97;;;3.50;99.90;;;;;;4926696;28;20572;-66
2021/12/29 09:15:06;;;;;;;62.73;33.93;;;3.50;99.90;;;;;;4929860;28;20474;-66
2021/12/29 09:17:35;;;;;;;68.83;34.37;;;3.60;99.90;;;;;;4927987;28;21092;-66
2021/12/29 09:20:03;;;;;;;65.50;34.07;;;3.60;99.90;;;;;;4928429;28;21002;-66
2021/12/29 09:22:33;;;;;;;61.90;33.30;;;3.60;99.90;;;;;;4927577;28;20515;-66
2021/12/29 09:25:01;;;;;;;61.17;32.43;;;3.50;99.90;;;;;;4929461;28;20946;-66
2021/12/29 09:27:29;;;;;;;65.23;33.73;;;3.50;99.90;;;;;;4930888;28;21016;-66
2021/12/29 09:29:57;;;;;;;60.40;31.63;;;3.50;99.90;;;;;;4931432;28;20581;-66
2021/12/29 09:32:30;;;;;;;63.40;34.67;;;3.50;99.90;;;;;;4929899;28;20496;-66
2021/12/29 09:35:00;;;;;;;67.80;33.63;;;3.70;99.90;;;;;;4930773;28;20573;-66
2021/12/29 09:37:30;;;;;;;65.90;34.37;;;3.80;99.90;;;;;;4930243;28;21294;-66
2021/12/29 09:39:59;;;;;;;63.40;33.20;;;3.80;99.90;;;;;;4931326;28;20488;-66
2021/12/29 09:42:28;;;;;;;64.80;32.97;;;3.80;99.90;;;;;;4929572;28;20483;-66
2021/12/29 09:44:56;;;;;;;64.47;33.10;;;3.80;99.90;;;;;;4930659;28;20586;-66
2021/12/29 09:47:24;;;;;;;59.80;32.93;;;3.70;99.90;;;;;;4930690;28;20516;-66
2021/12/29 09:49:52;;;;;;;71.33;38.37;;;3.70;99.90;;;;;;4931007;28;20482;-66
2021/12/29 09:52:20;;;;;;;65.37;35.57;;;3.60;99.90;;;;;;4929450;28;20490;-66
2021/12/29 09:54:49;;;;;;;72.50;37.23;;;3.70;99.90;;;;;;4929754;28;20518;-66
2021/12/29 09:57:18;;;;;;;68.60;38.13;;;3.70;99.90;;;;;;4963621;28;21331;-66
2021/12/29 09:59:46;;;;;;;68.57;37.07;;;3.70;99.90;;;;;;4969160;28;20556;-66
2021/12/29 10:02:15;;;;;;;64.67;35.60;;;3.70;99.90;;;;;;4967773;28;20493;-66
2021/12/29 10:04:46;;;;;;;64.40;36.00;;;3.70;99.90;;;;;;4969216;28;20509;-66
2021/12/29 10:07:16;;;;;;;59.87;33.07;;;3.70;99.90;;;;;;4969118;28;20489;-66
2021/12/29 10:09:44;;;;;;;57.47;31.67;;;3.90;99.90;;;;;;4968809;28;20998;-66
2021/12/29 10:12:19;;;;;;;55.23;31.13;;;3.90;99.90;;;;;;4967893;28;20968;-66
2021/12/29 10:14:54;;;;;;;53.53;31.33;;;3.90;99.90;;;;;;4968933;28;20610;-66
2021/12/29 10:17:26;;;;;;;50.33;29.50;;;3.90;99.90;;;;;;4968934;28;20723;-66
2021/12/29 10:20:02;;;;;;;46.40;27.00;;;3.90;99.90;;;;;;4967587;28;20511;-66
2021/12/29 10:22:30;;;;;;;46.37;27.33;;;4.10;99.90;;;;;;4967351;28;20482;-66
2021/12/29 10:25:08;;;;;;;47.27;26.57;;;4.10;99.90;;;;;;4968811;28;20539;-66
2021/12/29 10:27:36;;;;;;;51.23;28.10;;;4.30;99.90;;;;;;4968529;28;20989;-66
2021/12/29 10:30:18;;;;;;;50.97;28.97;;;4.40;99.90;;;;;;4968956;28;20466;-66
2021/12/29 10:32:46;;;;;;;51.00;28.53;;;4.30;99.90;;;;;;4947581;28;21692;-66
2021/12/29 10:35:22;;;;;;;47.20;27.53;;;4.20;99.90;;;;;;4948400;28;20525;-66
2021/12/29 10:37:51;;;;;;;47.37;27.03;;;4.20;99.90;;;;;;4948727;28;20485;-66
2021/12/29 10:40:28;;;;;;;49.20;28.30;;;4.20;99.90;;;;;;4948858;28;20482;-66
2021/12/29 10:42:59;;;;;;;48.40;30.63;;;4.30;99.90;;;;;;4947359;28;20501;-66
2021/12/29 10:45:33;;;;;;;48.90;28.37;;;4.20;99.90;;;;;;4948874;28;20490;-66
2021/12/29 10:48:03;;;;;;;52.73;33.77;;;4.50;99.90;;;;;;4948978;28;20498;-66
2021/12/29 10:50:31;;;;;;;58.07;31.33;;;4.50;99.90;;;;;;4948947;28;20485;-66
2021/12/29 10:52:59;;;;;;;45.37;28.17;;;4.50;99.90;;;;;;4947787;28;20575;-66
2021/12/29 10:55:32;;;;;;;49.80;29.97;;;4.40;99.90;;;;;;4948553;28;20487;-66
2021/12/29 10:58:04;;;;;;;47.60;28.47;;;4.40;99.90;;;;;;4948293;28;21251;-66
2021/12/29 11:00:47;;;;;;;64.60;43.37;;;4.50;99.90;;;;;;4968265;28;21080;-66
2021/12/29 11:03:18;;;;;;;60.93;41.07;;;4.60;99.90;;;;;;4966684;28;20485;-66
2021/12/29 11:05:50;;;;;;;50.80;29.67;;;4.70;99.90;;;;;;4967960;28;20479;-66
2021/12/29 11:08:18;;;;;;;54.20;33.20;;;4.80;99.90;;;;;;4967360;28;20482;-66
2021/12/29 11:10:48;;;;;;;52.43;30.00;;;4.60;99.90;;;;;;4967307;28;20473;-66
2021/12/29 11:13:25;;;;;;;48.13;29.37;;;4.50;99.90;;;;;;4965903;28;20492;-66
2021/12/29 11:15:56;;;;;;;48.50;29.00;;;4.50;99.90;;;;;;4967708;28;20586;-66
2021/12/29 11:18:24;;;;;;;47.80;27.93;;;4.50;99.90;;;;;;4966893;28;20489;-66
2021/12/29 11:20:54;;;;;;;47.80;27.37;;;4.60;99.90;;;;;;4967493;28;20517;-66
2021/12/29 11:23:23;;;;;;;52.80;28.93;;;4.60;99.90;;;;;;4965824;28;21176;-66
2021/12/29 11:25:53;;;;;;;52.07;30.23;;;4.70;99.90;;;;;;4967524;28;20512;-66
2021/12/29 11:28:23;;;;;;;54.03;28.43;;;4.60;99.90;;;;;;4967110;28;20483;-66
2021/12/29 11:30:55;;;;;;;55.23;28.37;;;4.70;99.90;;;;;;4967473;28;20540;-66
2021/12/29 11:33:24;;;;;;;63.83;30.20;;;4.70;99.90;;;;;;4966421;28;20493;-66
2021/12/29 11:35:54;;;;;;;54.43;30.80;;;4.90;99.90;;;;;;4967490;28;20483;-66
2021/12/29 11:38:23;;;;;;;56.67;31.30;;;4.80;99.90;;;;;;4967007;28;20517;-66
2021/12/29 11:40:56;;;;;;;64.17;30.63;;;4.80;99.90;;;;;;4968735;28;20473;-66
2021/12/29 11:43:24;;;;;;;65.03;31.53;;;4.90;99.90;;;;;;4958712;28;20545;-66
2021/12/29 11:45:56;;;;;;;68.80;31.27;;;4.90;99.90;;;;;;4952942;28;20487;-66
2021/12/29 11:48:26;;;;;;;61.10;28.60;;;5.00;99.90;;;;;;4953200;28;20494;-66
2021/12/29 11:50:58;;;;;;;67.90;31.90;;;5.00;99.90;;;;;;4952978;28;20496;-66
2021/12/29 11:53:43;;;;;;;72.60;32.50;;;5.10;99.90;;;;;;4952751;28;20502;-66
2021/12/29 11:56:15;;;;;;;61.97;31.77;;;5.10;99.90;;;;;;4952816;28;20473;-66
2021/12/29 11:58:44;;;;;;;62.87;28.13;;;5.20;99.90;;;;;;4968339;28;20497;-66
2021/12/29 12:01:20;;;;;;;63.77;29.30;;;5.10;99.90;;;;;;4971835;28;20520;-66
2021/12/29 12:03:51;;;;;;;59.93;31.33;;;5.00;99.90;;;;;;4955355;28;20486;-66
2021/12/29 12:06:28;;;;;;;60.27;30.33;;;4.90;99.90;;;;;;4958118;28;20474;-66
2021/12/29 12:09:08;;;;;;;59.50;31.97;;;4.90;99.90;;;;;;4968191;28;20993;-66
2021/12/29 12:11:38;;;;;;;74.47;39.43;;;4.90;99.90;;;;;;4959541;28;20558;-66
2021/12/29 12:14:18;;;;;;;60.53;33.83;;;5.10;99.90;;;;;;4956168;28;20468;-66
2021/12/29 12:16:57;;;;;;;61.00;30.90;;;5.10;99.90;;;;;;4962508;28;20987;-66
2021/12/29 12:19:27;;;;;;;58.37;27.23;;;5.00;99.90;;;;;;4952457;28;21022;-66
2021/12/29 12:22:08;;;;;;;43.03;22.43;;;4.90;99.90;;;;;;4953409;28;20906;-66
2021/12/29 12:24:38;;;;;;;51.10;27.13;;;5.00;99.90;;;;;;4963435;28;20553;-66
2021/12/29 12:27:11;;;;;;;47.73;26.60;;;5.10;99.90;;;;;;4968584;28;20463;-64
2021/12/29 12:29:41;;;;;;;49.90;26.93;;;5.10;99.90;;;;;;4933878;29;20566;-64
2021/12/29 12:32:15;;;;;;;52.80;26.93;;;5.00;99.90;;;;;;4952697;28;20540;-64
2021/12/29 12:35:05;;;;;;;52.63;24.84;;;5.30;99.90;;;;;;2642775;28;10004057;-64
2021/12/29 12:37:35;;;;;;;54.57;26.60;;;5.50;99.90;;;;;;3941903;28;10001446;-64
2021/12/29 12:40:07;;;;;;;64.90;29.77;;;5.40;99.90;;;;;;4971685;28;20485;-64
2021/12/29 12:42:35;;;;;;;56.67;27.40;;;5.70;99.90;;;;;;4975291;28;20501;-64
2021/12/29 12:45:15;;;;;;;54.80;28.73;;;5.70;99.90;;;;;;4981811;28;20469;-64
2021/12/29 12:47:45;;;;;;;52.30;27.03;;;5.70;99.90;;;;;;4970983;28;20482;-64
2021/12/29 12:50:24;;;;;;;52.97;27.60;;;5.60;99.90;;;;;;4971534;28;20486;-64
2021/12/29 12:52:55;;;;;;;47.73;26.30;;;5.40;99.90;;;;;;4971770;28;20493;-64
2021/12/29 12:55:25;;;;;;;48.27;26.13;;;5.30;99.90;;;;;;4971103;28;20489;-64